Time;durP1;ratioP1;P1;durP2;ratioP2;P2;SDS_P1;SDS_P2;PMS_P1;PMS_P2;Temp;Humidity;BMP_temperature;BMP_pressure;BME280_temperature;BME280_humidity;BME280_pressure;Samples;Min_cycle;Max_cycle;Signal;HPM_P1;HPM_P2
2022/09/10 00:01:40;;;;;;;4.03;1.20;;;13.20;99.90;;;;;;5071773;28;20923;-62
2022/09/10 00:04:11;;;;;;;2.30;1.07;;;13.20;99.90;;;;;;5071119;28;20527;-63
2022/09/10 00:06:39;;;;;;;2.40;1.13;;;13.00;99.90;;;;;;5071899;28;20566;-63
2022/09/10 00:09:08;;;;;;;2.80;1.10;;;13.10;99.90;;;;;;5071190;28;20435;-63
2022/09/10 00:11:37;;;;;;;5.50;1.20;;;13.10;99.90;;;;;;5071644;28;20495;-63
2022/09/10 00:14:06;;;;;;;2.10;1.00;;;13.10;99.90;;;;;;5070764;28;20447;-63
2022/09/10 00:16:34;;;;;;;2.10;0.93;;;13.10;99.90;;;;;;5071900;28;20872;-63
2022/09/10 00:19:02;;;;;;;3.60;1.10;;;13.10;99.90;;;;;;5070388;28;20459;-63
2022/09/10 00:21:30;;;;;;;3.70;1.40;;;13.10;99.90;;;;;;5071835;28;20530;-62
2022/09/10 00:23:58;;;;;;;1.77;0.80;;;13.10;99.90;;;;;;5070953;28;20440;-63
2022/09/10 00:26:27;;;;;;;2.57;1.30;;;13.10;99.90;;;;;;5071492;28;20514;-62
2022/09/10 00:28:58;;;;;;;2.50;1.10;;;13.10;99.90;;;;;;5071033;28;20983;-63
2022/09/10 00:31:25;;;;;;;3.67;1.50;;;13.20;99.90;;;;;;5071471;28;20976;-62
2022/09/10 00:33:55;;;;;;;1.90;1.00;;;13.20;99.80;;;;;;5070869;28;20432;-62
2022/09/10 00:36:24;;;;;;;1.97;1.10;;;13.30;99.90;;;;;;5073927;28;20476;-63
2022/09/10 00:38:53;;;;;;;1.80;1.00;;;13.30;99.70;;;;;;5074258;28;20938;-62
2022/09/10 00:41:23;;;;;;;4.13;1.23;;;13.30;99.60;;;;;;5075314;28;20446;-63
2022/09/10 00:43:55;;;;;;;3.27;1.23;;;13.30;99.60;;;;;;5072700;28;20996;-64
2022/09/10 00:46:34;;;;;;;3.70;1.20;;;13.40;99.40;;;;;;5075415;28;20829;-63
2022/09/10 00:49:04;;;;;;;2.67;1.30;;;13.50;99.30;;;;;;5074616;28;20444;-62
2022/09/10 00:51:34;;;;;;;4.83;1.50;;;13.50;99.20;;;;;;5074753;28;20774;-63
2022/09/10 00:54:02;;;;;;;3.90;2.03;;;13.50;98.90;;;;;;5073394;28;20957;-63
2022/09/10 00:56:31;;;;;;;4.37;2.40;;;13.50;99.00;;;;;;5075063;28;20428;-63
2022/09/10 00:59:00;;;;;;;6.57;2.80;;;13.40;99.10;;;;;;5074335;28;20504;-62
2022/09/10 01:01:28;;;;;;;5.33;2.10;;;13.40;99.20;;;;;;5074976;28;20436;-62
2022/09/10 01:03:56;;;;;;;4.37;2.00;;;;;;;;;;5074263;28;20436;-62
2022/09/10 01:06:23;;;;;;;3.00;1.80;;;13.40;99.20;;;;;;5074713;28;20525;-62
2022/09/10 01:08:51;;;;;;;4.33;1.97;;;13.30;99.80;;;;;;5073344;28;20476;-62
2022/09/10 01:11:32;;;;;;;2.50;1.40;;;13.20;99.70;;;;;;5074738;28;20440;-62
2022/09/10 01:14:17;;;;;;;2.30;1.00;;;13.20;99.80;;;;;;5074436;28;20486;-63
2022/09/10 01:16:52;;;;;;;2.23;1.43;;;13.20;99.80;;;;;;5074806;28;20444;-62
2022/09/10 01:19:47;;;;;;;2.17;1.27;;;13.20;99.80;;;;;;5073888;28;20439;-63
2022/09/10 01:22:28;;;;;;;3.10;0.90;;;13.20;99.60;;;;;;5074551;28;20490;-62
2022/09/10 01:24:59;;;;;;;3.17;1.17;;;13.20;99.70;;;;;;5074522;28;20447;-62
2022/09/10 01:27:42;;;;;;;2.53;1.17;;;13.10;99.60;;;;;;5073368;28;20540;-63
2022/09/10 01:30:14;;;;;;;2.40;1.57;;;13.20;99.60;;;;;;5074180;28;20428;-63
2022/09/10 01:32:55;;;;;;;2.30;1.40;;;13.10;99.60;;;;;;5074296;28;20439;-64
2022/09/10 01:35:29;;;;;;;3.60;1.33;;;13.10;99.90;;;;;;5053150;28;20936;-63
2022/09/10 01:37:59;;;;;;;1.93;1.27;;;13.10;99.80;;;;;;5068894;28;20493;-62
2022/09/10 01:40:30;;;;;;;1.70;0.97;;;13.10;99.60;;;;;;5074265;28;20443;-62
2022/09/10 01:43:01;;;;;;;3.40;1.17;;;13.10;99.40;;;;;;5073610;28;20494;-62
2022/09/10 01:45:29;;;;;;;1.80;0.90;;;13.20;99.10;;;;;;5074080;28;20522;-62
2022/09/10 01:48:27;;;;;;;2.53;1.40;;;13.00;99.00;;;;;;5071070;28;20519;-62
2022/09/10 01:51:03;;;;;;;3.03;1.20;;;13.00;99.50;;;;;;5053440;28;20432;-63
2022/09/10 01:53:51;;;;;;;2.77;1.23;;;12.90;99.60;;;;;;5070160;28;20440;-64
2022/09/10 01:56:34;;;;;;;2.00;1.10;;;12.90;99.90;;;;;;5073689;28;20428;-63
2022/09/10 01:59:09;;;;;;;2.60;1.47;;;12.90;99.90;;;;;;5073027;28;20493;-62
2022/09/10 02:01:43;;;;;;;4.47;1.43;;;12.90;99.80;;;;;;5072651;28;20439;-62
2022/09/10 02:04:13;;;;;;;2.37;1.07;;;12.80;99.80;;;;;;5073977;28;20432;-63
2022/09/10 02:06:45;;;;;;;2.10;1.10;;;12.90;99.70;;;;;;5072958;28;20983;-63
2022/09/10 02:09:14;;;;;;;3.20;1.50;;;12.80;99.80;;;;;;5073325;28;20428;-62
2022/09/10 02:11:47;;;;;;;3.63;1.10;;;12.90;99.80;;;;;;5073303;28;20506;-62
2022/09/10 02:14:16;;;;;;;5.77;0.90;;;12.90;99.70;;;;;;5073026;28;20553;-62
2022/09/10 02:16:51;;;;;;;2.00;1.00;;;12.90;99.60;;;;;;5073280;28;20952;-63
2022/09/10 02:19:18;;;;;;;3.80;1.30;;;12.90;99.30;;;;;;5072804;28;20485;-62
2022/09/10 02:21:45;;;;;;;3.50;1.30;;;12.90;99.00;;;;;;5072670;28;20455;-63
2022/09/10 02:24:13;;;;;;;6.13;1.27;;;12.90;98.90;;;;;;5072876;28;20444;-63
2022/09/10 02:26:43;;;;;;;2.33;0.90;;;12.90;98.90;;;;;;5073429;28;20831;-64
2022/09/10 02:29:14;;;;;;;11.60;1.30;;;12.80;98.90;;;;;;5072777;28;20487;-62
2022/09/10 02:31:43;;;;;;;3.40;1.10;;;12.80;99.00;;;;;;5070783;28;20459;-62
2022/09/10 02:34:10;;;;;;;3.17;1.10;;;12.90;98.80;;;;;;5072812;28;20493;-63
2022/09/10 02:36:38;;;;;;;2.07;1.17;;;12.90;99.30;;;;;;5072724;28;20497;-63
2022/09/10 02:39:05;;;;;;;3.20;1.30;;;12.90;99.00;;;;;;5073205;28;20520;-62
2022/09/10 02:41:34;;;;;;;5.00;1.37;;;12.90;98.90;;;;;;5070688;28;20600;-62
2022/09/10 02:44:01;;;;;;;2.53;1.00;;;12.90;98.90;;;;;;5072855;28;20444;-63
2022/09/10 02:46:29;;;;;;;2.17;1.10;;;12.80;98.70;;;;;;5068999;28;20436;-62
2022/09/10 02:48:58;;;;;;;3.73;1.13;;;12.70;98.80;;;;;;5072547;28;20557;-63
2022/09/10 02:51:25;;;;;;;2.30;0.83;;;12.60;99.00;;;;;;5072120;28;20490;-62
2022/09/10 02:53:54;;;;;;;3.20;1.40;;;12.60;99.30;;;;;;5072339;28;20450;-62
2022/09/10 02:56:21;;;;;;;2.00;1.00;;;12.50;99.20;;;;;;5072512;28;20535;-64
2022/09/10 02:58:49;;;;;;;2.40;1.50;;;12.40;99.30;;;;;;5071641;28;20511;-62
2022/09/10 03:01:18;;;;;;;5.33;2.27;;;12.40;99.40;;;;;;5071817;28;20462;-62
2022/09/10 03:03:50;;;;;;;6.57;3.70;;;12.40;99.70;;;;;;5072290;28;20436;-62
2022/09/10 03:06:20;;;;;;;3.87;2.70;;;12.40;99.50;;;;;;5072651;28;20798;-63
2022/09/10 03:08:47;;;;;;;4.60;3.20;;;12.40;99.60;;;;;;5071984;28;20566;-62
2022/09/10 03:11:15;;;;;;;4.63;2.07;;;12.40;99.70;;;;;;5071986;28;20447;-62
2022/09/10 03:13:46;;;;;;;2.60;1.50;;;12.40;99.70;;;;;;5072154;28;20966;-64
2022/09/10 03:16:14;;;;;;;2.77;1.80;;;12.40;99.70;;;;;;5052641;28;20510;-63
2022/09/10 03:18:41;;;;;;;3.07;1.70;;;12.40;99.80;;;;;;5052139;28;20930;-62
2022/09/10 03:21:09;;;;;;;3.95;2.20;;;12.40;99.90;;;;;;5071517;28;20497;-63
2022/09/10 03:23:39;;;;;;;2.50;2.00;;;12.50;99.90;;;;;;5072450;28;20201;-62
2022/09/10 03:26:06;;;;;;;3.50;2.17;;;12.60;99.90;;;;;;5071328;28;20436;-64
2022/09/10 03:28:33;;;;;;;2.60;1.60;;;12.60;99.80;;;;;;5072096;28;20479;-64
2022/09/10 03:31:01;;;;;;;2.80;1.60;;;12.70;99.80;;;;;;5071762;28;20475;-62
2022/09/10 03:33:28;;;;;;;2.73;1.90;;;12.60;99.30;;;;;;5072496;28;20448;-64
2022/09/10 03:35:55;;;;;;;4.60;2.30;;;12.60;99.40;;;;;;5071407;28;20839;-63
2022/09/10 03:38:22;;;;;;;2.97;1.60;;;12.60;99.60;;;;;;5072125;28;20479;-62
2022/09/10 03:40:51;;;;;;;6.30;1.73;;;12.60;99.60;;;;;;5071143;28;20439;-62
2022/09/10 03:43:21;;;;;;;4.37;2.30;;;12.70;99.80;;;;;;5072009;28;20493;-62
2022/09/10 03:45:49;;;;;;;3.53;2.27;;;12.70;99.40;;;;;;5071749;28;20764;-62
2022/09/10 03:48:16;;;;;;;4.63;1.90;;;12.60;99.20;;;;;;5071473;28;20970;-62
2022/09/10 03:50:44;;;;;;;2.23;1.23;;;12.70;99.40;;;;;;5071149;28;20528;-63
2022/09/10 03:53:11;;;;;;;3.17;1.47;;;12.70;99.30;;;;;;5071452;28;20845;-63
2022/09/10 03:55:39;;;;;;;2.40;1.40;;;12.70;99.50;;;;;;5071748;28;20485;-62
2022/09/10 03:58:07;;;;;;;2.40;1.30;;;12.70;99.60;;;;;;5071411;28;20464;-63
2022/09/10 04:00:35;;;;;;;2.17;1.10;;;12.70;99.60;;;;;;5071186;28;20447;-63
2022/09/10 04:03:04;;;;;;;3.60;1.10;;;;;;;;;;5072043;28;20501;-63
2022/09/10 04:05:31;;;;;;;2.20;1.00;;;;;;;;;;5071992;28;20454;-63
2022/09/10 04:08:01;;;;;;;1.77;0.83;;;;;;;;;;5071361;28;20475;-63
2022/09/10 04:10:29;;;;;;;2.87;0.97;;;;;;;;;;5074639;28;20435;-62
2022/09/10 04:12:56;;;;;;;2.43;1.20;;;;;;;;;;5075776;28;20528;-63
2022/09/10 04:15:25;;;;;;;1.83;1.00;;;;;;;;;;5075841;28;20493;-63
2022/09/10 04:17:53;;;;;;;2.13;0.90;;;;;;;;;;5075503;28;20443;-67
2022/09/10 04:20:21;;;;;;;2.50;1.20;;;;;;;;;;5055760;28;20428;-63
2022/09/10 04:22:50;;;;;;;3.70;1.03;;;;;;;;;;5075109;28;20449;-62
2022/09/10 04:25:18;;;;;;;2.50;1.27;;;;;;;;;;5075831;28;20444;-62
2022/09/10 04:27:45;;;;;;;4.07;1.33;;;;;;;;;;5074883;28;20440;-63
2022/09/10 04:30:13;;;;;;;3.13;1.03;;;;;;;;;;5075347;28;20458;-63
2022/09/10 04:32:43;;;;;;;4.03;1.00;;;;;;;;;;5075240;28;20444;-63
2022/09/10 04:35:12;;;;;;;7.63;1.30;;;;;;;;;;5074115;28;20949;-63
2022/09/10 04:37:39;;;;;;;6.90;1.27;;;;;;;;;;5075108;28;20954;-62
2022/09/10 04:40:08;;;;;;;20.57;1.93;;;12.70;99.70;;;;;;5075545;28;20450;-62
2022/09/10 04:42:35;;;;;;;1.70;0.80;;;13.10;99.30;;;;;;5074884;28;20432;-63
2022/09/10 04:45:02;;;;;;;1.87;0.73;;;13.20;99.70;;;;;;5075476;28;20436;-63
2022/09/10 04:47:30;;;;;;;1.80;0.90;;;;;;;;;;5074889;28;20444;-63
2022/09/10 04:49:58;;;;;;;2.93;0.90;;;;;;;;;;5075318;28;20574;-63
2022/09/10 04:52:26;;;;;;;2.97;1.00;;;;;;;;;;5074681;28;20454;-63
2022/09/10 04:54:54;;;;;;;2.57;1.30;;;;;;;;;;5075300;28;20513;-62
2022/09/10 04:57:21;;;;;;;2.70;0.90;;;13.10;99.50;;;;;;5074658;28;20467;-63
2022/09/10 04:59:48;;;;;;;2.80;1.23;;;13.20;99.10;;;;;;5075162;28;20519;-62
2022/09/10 05:02:15;;;;;;;1.97;1.03;;;13.20;99.30;;;;;;5074368;28;20440;-62
2022/09/10 05:04:43;;;;;;;2.20;0.83;;;13.20;98.80;;;;;;5075229;28;20820;-63
2022/09/10 05:07:11;;;;;;;2.37;1.20;;;13.20;99.10;;;;;;5074387;28;20566;-64
2022/09/10 05:09:38;;;;;;;1.70;0.70;;;13.20;98.80;;;;;;5074996;28;20486;-62
2022/09/10 05:12:06;;;;;;;2.27;1.10;;;13.20;99.00;;;;;;5074272;28;20448;-63
2022/09/10 05:14:33;;;;;;;2.77;0.90;;;13.20;99.10;;;;;;5074879;28;20444;-63
2022/09/10 05:17:00;;;;;;;2.53;0.90;;;13.10;99.40;;;;;;5074223;28;20440;-63
2022/09/10 05:19:28;;;;;;;4.03;0.80;;;13.20;99.50;;;;;;5074937;28;20447;-63
2022/09/10 05:21:55;;;;;;;3.20;1.00;;;13.20;99.40;;;;;;5072978;28;20930;-63
2022/09/10 05:24:23;;;;;;;2.10;1.17;;;13.20;99.80;;;;;;5074727;28;20452;-62
2022/09/10 05:26:50;;;;;;;2.57;0.97;;;13.20;99.70;;;;;;5073778;28;20432;-63
2022/09/10 05:29:20;;;;;;;5.40;2.40;;;13.30;99.90;;;;;;5074576;28;20516;-62
2022/09/10 05:31:48;;;;;;;2.03;0.87;;;13.30;99.90;;;;;;5074305;28;20500;-62
2022/09/10 05:34:15;;;;;;;2.23;1.00;;;13.30;99.50;;;;;;5074702;28;20444;-62
2022/09/10 05:36:42;;;;;;;2.00;1.00;;;13.20;99.30;;;;;;5073813;28;20474;-62
2022/09/10 05:39:09;;;;;;;2.10;1.20;;;13.20;99.70;;;;;;5074683;28;20439;-63
2022/09/10 05:41:38;;;;;;;4.00;1.30;;;13.20;99.90;;;;;;5073850;28;20432;-63
2022/09/10 05:44:05;;;;;;;2.47;1.30;;;13.30;99.80;;;;;;5074447;28;20446;-63
2022/09/10 05:46:32;;;;;;;2.80;1.20;;;13.30;99.90;;;;;;5074297;28;20522;-62
2022/09/10 05:48:59;;;;;;;3.30;1.30;;;13.30;99.90;;;;;;5072506;28;20478;-67
2022/09/10 05:51:29;;;;;;;2.20;1.40;;;13.40;99.90;;;;;;5073821;28;20470;-62
2022/09/10 05:53:57;;;;;;;2.23;1.37;;;13.50;99.90;;;;;;5074229;28;20485;-62
2022/09/10 05:56:25;;;;;;;2.03;1.17;;;13.60;99.90;;;;;;5073796;28;20441;-63
2022/09/10 05:58:54;;;;;;;2.07;0.90;;;13.60;99.90;;;;;;5074006;28;20462;-64
2022/09/10 06:01:21;;;;;;;2.80;1.53;;;13.70;99.90;;;;;;5072312;28;20505;-63
2022/09/10 06:03:49;;;;;;;4.27;1.43;;;13.80;99.90;;;;;;5074068;28;20436;-62
2022/09/10 06:06:18;;;;;;;3.13;1.40;;;13.80;99.90;;;;;;5073619;28;20466;-62
2022/09/10 06:08:50;;;;;;;2.80;1.27;;;13.90;99.90;;;;;;5073979;28;20549;-63
2022/09/10 06:11:17;;;;;;;2.20;1.10;;;;;;;;;;5073663;28;20493;-62
2022/09/10 06:13:45;;;;;;;4.30;1.77;;;;;;;;;;5068615;28;20490;-62
2022/09/10 06:16:14;;;;;;;2.80;2.03;;;;;;;;;;5071163;28;20440;-63
2022/09/10 06:18:44;;;;;;;1.93;0.90;;;;;;;;;;5072202;28;20464;-63
2022/09/10 06:21:13;;;;;;;3.00;1.30;;;;;;;;;;5071717;28;20439;-63
2022/09/10 06:23:41;;;;;;;3.20;0.93;;;;;;;;;;5071362;28;20523;-63
2022/09/10 06:26:10;;;;;;;1.70;0.90;;;;;;;;;;5072077;28;20440;-62
2022/09/10 06:28:38;;;;;;;2.90;0.90;;;;;;;;;;5071135;28;20479;-63
2022/09/10 06:31:09;;;;;;;7.20;1.30;;;;;;;;;;5072033;28;20436;-63
2022/09/10 06:33:38;;;;;;;1.93;1.00;;;;;;;;;;5066936;28;20447;-63
2022/09/10 06:36:10;;;;;;;2.30;1.23;;;;;;;;;;5071418;28;20480;-63
2022/09/10 06:38:37;;;;;;;2.20;1.17;;;;;;;;;;5071889;28;20479;-62
2022/09/10 06:41:06;;;;;;;4.30;1.40;;;;;;;;;;5071491;28;20432;-62
2022/09/10 06:43:35;;;;;;;2.20;1.10;;;;;;;;;;5071286;28;20452;-63
2022/09/10 06:46:09;;;;;;;2.20;1.10;;;;;;;;;;5071666;28;20844;-63
2022/09/10 06:48:41;;;;;;;2.10;1.00;;;;;;;;;;5065242;28;20472;-63
2022/09/10 06:51:09;;;;;;;1.60;0.70;;;;;;;;;;5071568;28;20797;-63
2022/09/10 06:53:38;;;;;;;5.83;1.20;;;;;;;;;;5070695;28;20447;-64
2022/09/10 06:56:07;;;;;;;2.73;0.93;;;;;;;;;;5068866;28;20440;-63
2022/09/10 06:58:35;;;;;;;2.00;0.90;;;;;;;;;;5071083;28;20861;-63
2022/09/10 07:01:13;;;;;;;2.40;1.10;;;;;;;;;;5071135;28;20770;-63
2022/09/10 07:03:42;;;;;;;2.37;0.80;;;;;;;;;;5070550;28;21025;-63
2022/09/10 07:06:12;;;;;;;2.67;0.70;;;;;;;;;;5070633;28;20907;-63
2022/09/10 07:08:39;;;;;;;3.70;0.70;;;;;;;;;;5070554;28;20917;-63
2022/09/10 07:11:08;;;;;;;2.27;0.77;;;;;;;;;;5070764;28;20440;-63
2022/09/10 07:13:36;;;;;;;4.43;0.87;;;;;;;;;;5070771;28;21125;-64
2022/09/10 07:16:03;;;;;;;1.70;0.77;;;;;;;;;;5070964;28;20436;-63
2022/09/10 07:18:32;;;;;;;2.00;0.80;;;;;;;;;;5070945;28;20436;-63
2022/09/10 07:21:08;;;;;;;6.83;0.90;;;;;;;;;;5070567;28;20960;-63
2022/09/10 07:23:40;;;;;;;2.17;0.80;;;;;;;;;;5069251;28;20467;-64
2022/09/10 07:26:08;;;;;;;3.40;1.70;;;;;;;;;;5066443;28;20439;-63
2022/09/10 07:28:36;;;;;;;3.03;2.07;;;;;;;;;;5070632;28;20482;-63
2022/09/10 07:31:12;;;;;;;1.70;0.90;;;;;;;;;;5069554;28;20876;-62
2022/09/10 07:33:39;;;;;;;2.00;0.60;;;;;;;;;;5066619;28;20854;-63
2022/09/10 07:36:14;;;;;;;2.20;0.90;;;;;;;;;;5070060;28;20829;-63
2022/09/10 07:38:42;;;;;;;2.47;0.93;;;;;;;;;;5070269;28;20526;-63
2022/09/10 07:41:11;;;;;;;1.93;0.80;;;;;;;;;;5069712;28;20530;-64
2022/09/10 07:43:40;;;;;;;1.80;0.90;;;;;;;;;;5069595;28;20795;-64
2022/09/10 07:46:08;;;;;;;2.30;0.90;;;;;;;;;;5068211;28;20921;-63
2022/09/10 07:48:36;;;;;;;3.50;0.90;;;;;;;;;;5065444;28;20472;-64
2022/09/10 07:51:04;;;;;;;2.57;1.13;;;;;;;;;;5069835;28;20523;-63
2022/09/10 07:53:45;;;;;;;2.60;1.00;;;14.00;99.90;;;;;;5070255;28;20441;-63
2022/09/10 07:56:16;;;;;;;2.37;0.70;;;18.30;99.30;;;;;;5070320;28;20516;-63
2022/09/10 07:58:45;;;;;;;1.60;0.60;;;19.30;96.90;;;;;;5070670;28;20432;-64
2022/09/10 08:01:14;;;;;;;2.23;0.93;;;20.30;91.10;;;;;;5067741;28;20475;-64
2022/09/10 08:03:47;;;;;;;2.73;0.87;;;20.40;86.10;;;;;;5070221;28;20915;-63
2022/09/10 08:06:14;;;;;;;3.00;1.03;;;20.10;86.50;;;;;;5069359;28;20464;-63
2022/09/10 08:08:43;;;;;;;1.60;0.60;;;20.00;90.00;;;;;;5070097;28;20922;-63
2022/09/10 08:11:15;;;;;;;1.80;0.70;;;19.80;85.90;;;;;;5065479;28;20526;-64
2022/09/10 08:13:45;;;;;;;2.30;0.70;;;19.40;85.20;;;;;;5069985;28;20534;-63
2022/09/10 08:16:14;;;;;;;2.60;1.20;;;18.90;87.30;;;;;;5069730;28;20434;-64
2022/09/10 08:18:41;;;;;;;3.40;1.37;;;18.60;88.90;;;;;;5065660;28;20492;-63
2022/09/10 08:21:09;;;;;;;1.97;0.90;;;18.30;90.00;;;;;;5068863;28;20458;-63
2022/09/10 08:23:38;;;;;;;1.80;0.60;;;18.10;88.90;;;;;;5070405;28;20435;-63
2022/09/10 08:26:08;;;;;;;2.87;1.03;;;17.70;90.00;;;;;;5069810;28;20426;-63
2022/09/10 08:28:37;;;;;;;2.00;0.90;;;17.50;90.80;;;;;;5069991;28;20478;-63
2022/09/10 08:31:07;;;;;;;1.80;0.70;;;17.50;91.70;;;;;;5070294;28;20489;-63
2022/09/10 08:33:38;;;;;;;3.40;0.87;;;17.30;91.80;;;;;;5069650;28;20448;-62
2022/09/10 08:36:07;;;;;;;2.00;0.70;;;17.10;92.10;;;;;;5067455;28;20555;-63
2022/09/10 08:38:37;;;;;;;2.43;0.90;;;16.90;92.50;;;;;;5067821;28;20923;-63
2022/09/10 08:41:12;;;;;;;2.60;0.77;;;16.70;93.50;;;;;;5066383;28;20523;-64
2022/09/10 08:44:01;;;;;;;2.90;0.87;;;16.50;93.70;;;;;;5068154;28;20430;-63
2022/09/10 08:46:32;;;;;;;4.23;1.07;;;16.40;94.40;;;;;;5068617;28;20435;-63
2022/09/10 08:49:12;;;;;;;2.50;1.23;;;16.40;94.60;;;;;;5069963;28;20530;-64
2022/09/10 08:51:44;;;;;;;3.13;1.30;;;16.40;94.20;;;;;;5060283;28;21284;-63
2022/09/10 08:54:14;;;;;;;2.00;0.87;;;16.30;94.40;;;;;;5069241;28;20436;-63
2022/09/10 08:56:49;;;;;;;1.80;0.80;;;16.30;94.30;;;;;;5070491;28;20531;-63
2022/09/10 08:59:21;;;;;;;2.00;0.80;;;16.20;94.70;;;;;;5062001;28;20966;-64
2022/09/10 09:01:52;;;;;;;2.87;1.20;;;16.20;95.10;;;;;;5072184;28;20443;-63
2022/09/10 09:04:29;;;;;;;2.57;1.03;;;16.20;95.30;;;;;;5072527;28;20458;-63
2022/09/10 09:07:01;;;;;;;3.03;1.03;;;16.20;95.30;;;;;;5072098;28;20440;-63
2022/09/10 09:09:28;;;;;;;2.30;0.87;;;16.20;95.00;;;;;;5067622;28;20584;-65
2022/09/10 09:12:03;;;;;;;1.70;0.70;;;16.10;94.60;;;;;;5072095;28;20445;-63
2022/09/10 09:14:50;;;;;;;4.53;0.70;;;16.10;95.00;;;;;;5072354;28;20435;-63
2022/09/10 09:17:34;;;;;;;1.60;0.60;;;16.00;94.50;;;;;;5072632;28;20527;-64
2022/09/10 09:20:13;;;;;;;2.37;0.90;;;15.80;94.80;;;;;;5073048;28;20518;-67
2022/09/10 09:22:48;;;;;;;1.77;0.80;;;15.80;94.90;;;;;;5072072;28;20436;-63
2022/09/10 09:25:23;;;;;;;2.00;1.03;;;15.60;94.70;;;;;;5072202;28;20436;-63
2022/09/10 09:27:55;;;;;;;1.97;0.80;;;15.60;95.20;;;;;;5070952;28;20435;-63
2022/09/10 09:30:27;;;;;;;1.80;0.70;;;15.70;95.80;;;;;;5071412;28;20549;-63
2022/09/10 09:32:58;;;;;;;2.40;0.80;;;15.60;96.10;;;;;;5071845;28;20448;-64
2022/09/10 09:35:33;;;;;;;1.97;1.00;;;15.60;96.60;;;;;;5070202;28;20777;-64
2022/09/10 09:38:18;;;;;;;3.40;1.00;;;15.50;96.90;;;;;;5072544;28;20795;-62
2022/09/10 09:40:48;;;;;;;2.60;0.97;;;15.50;97.40;;;;;;5071494;28;20460;-62
2022/09/10 09:43:28;;;;;;;1.93;0.73;;;15.60;97.50;;;;;;5071753;28;20444;-64
2022/09/10 09:45:55;;;;;;;3.67;1.13;;;15.70;97.10;;;;;;5069322;28;20966;-63
2022/09/10 09:48:37;;;;;;;2.87;0.90;;;15.70;96.90;;;;;;5065848;28;20448;-63
2022/09/10 09:51:13;;;;;;;3.20;1.10;;;15.80;97.20;;;;;;5070029;28;20497;-63
2022/09/10 09:53:42;;;;;;;3.27;1.00;;;15.80;97.30;;;;;;5069266;28;20447;-63
2022/09/10 09:56:17;;;;;;;2.07;1.00;;;15.80;96.60;;;;;;5066504;28;20527;-63
2022/09/10 09:59:06;;;;;;;2.87;1.33;;;15.90;96.80;;;;;;5068845;28;20860;-62
2022/09/10 10:01:39;;;;;;;2.63;1.30;;;16.10;96.60;;;;;;5068852;28;20440;-63
2022/09/10 10:04:21;;;;;;;3.30;1.60;;;16.20;96.60;;;;;;5068444;28;20450;-63
2022/09/10 10:06:55;;;;;;;2.90;1.47;;;16.40;96.90;;;;;;5067644;28;20451;-63
2022/09/10 10:09:25;;;;;;;3.60;2.33;;;16.50;96.90;;;;;;5069327;28;20440;-63
2022/09/10 10:11:54;;;;;;;2.20;1.10;;;16.70;96.50;;;;;;5067856;28;20444;-63
2022/09/10 10:14:41;;;;;;;3.30;0.90;;;16.70;95.70;;;;;;5068278;28;21009;-63
2022/09/10 10:17:32;;;;;;;1.80;0.90;;;16.90;95.80;;;;;;5070017;28;20439;-63
2022/09/10 10:20:07;;;;;;;2.47;0.90;;;17.00;95.10;;;;;;5069975;28;21722;-63
2022/09/10 10:22:38;;;;;;;2.80;1.00;;;16.90;94.70;;;;;;5070088;28;20440;-64
2022/09/10 10:25:40;;;;;;;2.10;1.20;;;17.00;95.00;;;;;;5066255;28;20853;-63
2022/09/10 10:28:20;;;;;;;2.23;0.80;;;17.20;94.90;;;;;;5069827;28;20455;-64
2022/09/10 10:30:53;;;;;;;5.10;0.93;;;17.30;94.20;;;;;;5068216;28;20474;-63
2022/09/10 10:33:26;;;;;;;1.73;0.87;;;17.40;94.80;;;;;;5070103;28;20448;-63
2022/09/10 10:36:03;;;;;;;1.70;0.80;;;17.60;93.70;;;;;;5069516;28;20487;-63
2022/09/10 10:38:34;;;;;;;1.70;0.70;;;17.80;93.20;;;;;;5068512;28;20496;-63
2022/09/10 10:41:25;;;;;;;1.70;0.70;;;17.90;93.10;;;;;;5068846;28;20445;-64
2022/09/10 10:44:05;;;;;;;3.00;1.30;;;18.00;92.10;;;;;;5067549;28;20470;-63
2022/09/10 10:46:49;;;;;;;3.20;1.80;;;18.00;93.00;;;;;;5069363;28;20526;-63
2022/09/10 10:49:27;;;;;;;2.93;0.90;;;18.00;92.30;;;;;;5068741;28;20858;-64
2022/09/10 10:52:09;;;;;;;2.03;0.80;;;18.00;92.70;;;;;;5067968;28;20481;-63
2022/09/10 10:55:06;;;;;;;2.77;1.27;;;17.90;92.70;;;;;;5069313;28;20447;-64
2022/09/10 10:58:07;;;;;;;4.37;1.40;;;17.90;92.70;;;;;;5067688;28;20523;-62
2022/09/10 11:00:57;;;;;;;2.63;1.23;;;18.00;93.20;;;;;;5067600;28;20510;-65
2022/09/10 11:03:34;;;;;;;2.33;1.00;;;18.10;93.00;;;;;;5068920;28;20841;-63
2022/09/10 11:06:11;;;;;;;3.07;0.93;;;18.00;93.30;;;;;;5068042;28;20458;-63
2022/09/10 11:08:44;;;;;;;2.03;0.83;;;18.00;93.10;;;;;;5069138;28;20443;-63
2022/09/10 11:11:16;;;;;;;3.53;1.13;;;18.00;92.80;;;;;;5066493;28;20843;-63
2022/09/10 11:13:51;;;;;;;1.70;0.80;;;18.10;92.70;;;;;;5067828;28;20453;-63
2022/09/10 11:16:23;;;;;;;1.90;1.00;;;18.40;93.00;;;;;;5068756;28;20442;-63
2022/09/10 11:18:58;;;;;;;3.87;1.10;;;18.50;91.60;;;;;;5068461;28;20442;-63
2022/09/10 11:21:30;;;;;;;3.23;0.90;;;19.10;93.30;;;;;;5068469;28;20487;-66
2022/09/10 11:24:01;;;;;;;2.20;0.73;;;19.80;90.50;;;;;;5069267;28;20440;-62
2022/09/10 11:26:35;;;;;;;2.73;0.90;;;19.70;85.70;;;;;;5068478;28;20494;-63
2022/09/10 11:29:24;;;;;;;2.30;1.07;;;19.70;85.40;;;;;;5069470;28;20946;-63
2022/09/10 11:31:59;;;;;;;2.13;0.93;;;19.80;86.20;;;;;;5068843;28;20522;-63
2022/09/10 11:34:34;;;;;;;2.13;0.80;;;20.10;89.00;;;;;;5068584;28;20455;-63
2022/09/10 11:37:15;;;;;;;2.00;0.90;;;20.40;88.40;;;;;;5068808;28;20520;-64
2022/09/10 11:39:48;;;;;;;1.80;0.80;;;20.60;87.90;;;;;;5067048;28;20436;-63
2022/09/10 11:42:24;;;;;;;3.20;1.20;;;20.60;86.60;;;;;;5068740;28;20562;-63
2022/09/10 11:44:59;;;;;;;2.97;0.80;;;20.60;85.00;;;;;;5065705;28;21006;-63
2022/09/10 11:47:32;;;;;;;1.90;1.00;;;20.50;82.40;;;;;;5068578;28;20435;-63
2022/09/10 11:50:06;;;;;;;2.47;0.90;;;20.50;81.90;;;;;;5067919;28;20475;-64
2022/09/10 11:52:34;;;;;;;1.70;0.80;;;20.40;83.60;;;;;;5068642;28;20459;-65
2022/09/10 11:55:14;;;;;;;2.30;0.93;;;20.30;84.40;;;;;;5066631;28;20440;-64
2022/09/10 11:57:52;;;;;;;3.43;0.90;;;20.30;82.50;;;;;;5068973;28;20436;-63
2022/09/10 12:00:21;;;;;;;3.23;0.80;;;20.30;83.60;;;;;;5067002;28;20448;-62
2022/09/10 12:03:19;;;;;;;1.80;0.60;;;20.30;82.50;;;;;;5068641;28;20444;-63
2022/09/10 12:06:01;;;;;;;2.53;0.80;;;20.20;81.80;;;;;;5067044;28;20448;-63
2022/09/10 12:08:45;;;;;;;2.33;1.17;;;20.50;81.40;;;;;;5067272;28;20529;-63
2022/09/10 12:11:28;;;;;;;4.17;0.87;;;20.80;81.60;;;;;;5067535;28;20562;-63
2022/09/10 12:13:57;;;;;;;1.93;0.80;;;21.20;76.30;;;;;;5068716;28;20462;-63
2022/09/10 12:16:35;;;;;;;2.53;0.70;;;21.30;74.70;;;;;;5068382;28;20443;-63
2022/09/10 12:19:07;;;;;;;2.07;0.73;;;21.30;71.80;;;;;;5067541;28;20435;-63
2022/09/10 12:21:41;;;;;;;3.80;0.80;;;21.60;75.40;;;;;;5066926;28;20867;-64
2022/09/10 12:24:25;;;;;;;2.27;0.90;;;23.70;87.00;;;;;;5068472;28;20783;-63
2022/09/10 12:26:55;;;;;;;2.87;0.90;;;27.30;74.00;;;;;;5068137;28;20547;-63
2022/09/10 12:29:40;;;;;;;2.87;0.70;;;30.20;57.30;;;;;;5067878;28;20856;-63
2022/09/10 12:32:28;;;;;;;1.70;0.70;;;31.30;52.10;;;;;;5070800;28;20524;-64
2022/09/10 12:35:44;;;;;;;2.07;0.90;;;32.10;44.50;;;;;;5071347;28;20827;-64
2022/09/10 12:38:54;;;;;;;2.90;0.77;;;32.30;39.80;;;;;;5071693;28;20428;-64
2022/09/10 12:42:08;;;;;;;2.00;0.70;;;31.60;40.10;;;;;;5071789;28;20431;-63
2022/09/10 12:44:55;;;;;;;1.90;0.73;;;31.20;42.50;;;;;;5037479;28;20439;-63
2022/09/10 12:47:52;;;;;;;1.70;0.60;;;31.50;42.70;;;;;;5074290;28;20530;-63
2022/09/10 12:50:44;;;;;;;4.63;1.47;;;31.60;40.00;;;;;;5073798;28;20494;-65
2022/09/10 12:53:46;;;;;;;3.43;1.20;;;31.50;38.30;;;;;;5073598;28;20515;-64
2022/09/10 12:56:45;;;;;;;2.43;0.67;;;30.80;38.40;;;;;;5074033;28;20527;-64
2022/09/10 12:59:34;;;;;;;2.20;0.80;;;30.50;40.40;;;;;;5074380;28;20440;-64
2022/09/10 13:02:02;;;;;;;4.20;0.87;;;30.50;40.00;;;;;;5070580;28;20478;-63
2022/09/10 13:04:33;;;;;;;3.13;0.90;;;30.10;36.40;;;;;;5074161;28;20482;-63
2022/09/10 13:07:03;;;;;;;2.00;0.80;;;29.20;37.00;;;;;;5074328;28;20444;-63
2022/09/10 13:09:34;;;;;;;3.73;0.93;;;28.30;38.50;;;;;;5073954;28;20479;-63
2022/09/10 13:12:07;;;;;;;2.20;0.70;;;27.50;40.30;;;;;;5074048;28;20576;-63
2022/09/10 13:14:37;;;;;;;2.47;0.70;;;26.60;41.20;;;;;;5074073;28;20448;-65
2022/09/10 13:17:05;;;;;;;2.80;0.97;;;26.00;41.60;;;;;;5069999;28;20479;-63
2022/09/10 13:19:49;;;;;;;3.00;0.80;;;25.50;43.90;;;;;;5073795;28;20523;-63
2022/09/10 13:23:02;;;;;;;2.60;1.00;;;24.80;43.10;;;;;;5069976;28;20436;-63
2022/09/10 13:25:43;;;;;;;6.07;0.70;;;24.20;44.80;;;;;;5065233;28;20534;-63
2022/09/10 13:28:47;;;;;;;2.80;1.30;;;23.70;48.00;;;;;;5072732;28;20436;-63
2022/09/10 13:31:23;;;;;;;2.40;0.60;;;23.60;48.60;;;;;;5072137;28;20532;-63
2022/09/10 13:34:18;;;;;;;2.60;0.70;;;23.40;47.90;;;;;;5071132;28;20813;-63
2022/09/10 13:37:01;;;;;;;2.20;0.53;;;23.20;49.70;;;;;;5061269;28;20998;-63
2022/09/10 13:39:58;;;;;;;2.40;0.70;;;23.20;50.90;;;;;;5073384;28;20523;-63